sensor_id;sensor_type;location;lat;lon;timestamp;temperature;humidity
27759;DHT22;15148;48.972;12.794;2024-03-25T00:01:04;4.10;99.90
27759;DHT22;15148;48.972;12.794;2024-03-25T00:06:05;4.10;99.90
27759;DHT22;15148;48.972;12.794;2024-03-25T00:11:07;4.10;99.90
27759;DHT22;15148;48.972;12.794;2024-03-25T00:16:08;4.20;99.90
27759;DHT22;15148;48.972;12.794;2024-03-25T00:21:09;4.20;99.90
27759;DHT22;15148;48.972;12.794;2024-03-25T00:26:10;4.20;99.90
27759;DHT22;15148;48.972;12.794;2024-03-25T00:31:11;4.20;99.90
27759;DHT22;15148;48.972;12.794;2024-03-25T00:36:12;4.10;99.90
27759;DHT22;15148;48.972;12.794;2024-03-25T00:41:13;4.20;99.90
27759;DHT22;15148;48.972;12.794;2024-03-25T00:46:14;4.20;99.90
27759;DHT22;15148;48.972;12.794;2024-03-25T00:51:15;4.20;99.90
27759;DHT22;15148;48.972;12.794;2024-03-25T00:56:16;4.10;99.90
27759;DHT22;15148;48.972;12.794;2024-03-25T01:01:17;4.20;99.90
27759;DHT22;15148;48.972;12.794;2024-03-25T01:06:18;4.30;99.90
27759;DHT22;15148;48.972;12.794;2024-03-25T01:11:19;4.20;99.90
27759;DHT22;15148;48.972;12.794;2024-03-25T01:16:20;4.20;99.90
27759;DHT22;15148;48.972;12.794;2024-03-25T01:21:21;4.20;99.90
27759;DHT22;15148;48.972;12.794;2024-03-25T01:26:22;4.20;99.90
27759;DHT22;15148;48.972;12.794;2024-03-25T01:31:23;4.20;99.90
27759;DHT22;15148;48.972;12.794;2024-03-25T01:36:23;4.20;99.90
27759;DHT22;15148;48.972;12.794;2024-03-25T01:41:26;4.20;99.90
27759;DHT22;15148;48.972;12.794;2024-03-25T01:46:28;4.20;99.90
27759;DHT22;15148;48.972;12.794;2024-03-25T01:51:30;4.20;99.90
27759;DHT22;15148;48.972;12.794;2024-03-25T01:56:33;4.20;99.90
27759;DHT22;15148;48.972;12.794;2024-03-25T02:01:35;4.20;99.90
27759;DHT22;15148;48.972;12.794;2024-03-25T02:06:39;4.10;99.90
27759;DHT22;15148;48.972;12.794;2024-03-25T02:11:41;4.20;99.90
27759;DHT22;15148;48.972;12.794;2024-03-25T02:16:42;4.20;99.90
27759;DHT22;15148;48.972;12.794;2024-03-25T02:21:43;4.20;99.90
27759;DHT22;15148;48.972;12.794;2024-03-25T02:26:44;4.20;99.90
27759;DHT22;15148;48.972;12.794;2024-03-25T02:31:45;4.20;99.90
27759;DHT22;15148;48.972;12.794;2024-03-25T02:36:48;4.20;99.90
27759;DHT22;15148;48.972;12.794;2024-03-25T02:41:49;4.20;99.90
27759;DHT22;15148;48.972;12.794;2024-03-25T02:46:50;4.20;99.90
27759;DHT22;15148;48.972;12.794;2024-03-25T02:51:51;4.20;99.90
27759;DHT22;15148;48.972;12.794;2024-03-25T02:56:52;4.20;99.90
27759;DHT22;15148;48.972;12.794;2024-03-25T03:01:53;4.20;99.90
27759;DHT22;15148;48.972;12.794;2024-03-25T03:06:55;4.10;99.90
27759;DHT22;15148;48.972;12.794;2024-03-25T03:11:56;4.20;99.90
27759;DHT22;15148;48.972;12.794;2024-03-25T03:16:57;4.20;99.90
27759;DHT22;15148;48.972;12.794;2024-03-25T03:21:58;4.20;99.90
27759;DHT22;15148;48.972;12.794;2024-03-25T03:27:00;4.20;99.90
27759;DHT22;15148;48.972;12.794;2024-03-25T03:32:01;4.20;99.90
27759;DHT22;15148;48.972;12.794;2024-03-25T03:37:02;4.20;99.90
27759;DHT22;15148;48.972;12.794;2024-03-25T03:42:03;4.20;99.90
27759;DHT22;15148;48.972;12.794;2024-03-25T03:47:04;4.10;99.90
27759;DHT22;15148;48.972;12.794;2024-03-25T03:52:05;4.20;99.90
27759;DHT22;15148;48.972;12.794;2024-03-25T03:57:06;4.20;99.90
27759;DHT22;15148;48.972;12.794;2024-03-25T04:02:07;4.20;99.90
27759;DHT22;15148;48.972;12.794;2024-03-25T04:07:09;4.20;99.90
27759;DHT22;15148;48.972;12.794;2024-03-25T04:12:10;4.20;99.90
27759;DHT22;15148;48.972;12.794;2024-03-25T04:17:11;4.20;99.90
27759;DHT22;15148;48.972;12.794;2024-03-25T04:22:12;4.20;99.90
27759;DHT22;15148;48.972;12.794;2024-03-25T04:27:13;4.20;99.90
27759;DHT22;15148;48.972;12.794;2024-03-25T04:32:14;4.20;99.90
27759;DHT22;15148;48.972;12.794;2024-03-25T04:37:15;4.20;99.90
27759;DHT22;15148;48.972;12.794;2024-03-25T04:42:16;4.20;99.90
27759;DHT22;15148;48.972;12.794;2024-03-25T04:47:18;4.20;99.90
27759;DHT22;15148;48.972;12.794;2024-03-25T04:52:19;4.20;99.90
27759;DHT22;15148;48.972;12.794;2024-03-25T04:57:23;4.20;99.90
27759;DHT22;15148;48.972;12.794;2024-03-25T05:02:25;4.20;99.90
27759;DHT22;15148;48.972;12.794;2024-03-25T05:07:26;4.20;99.90
27759;DHT22;15148;48.972;12.794;2024-03-25T05:12:28;4.20;99.90
27759;DHT22;15148;48.972;12.794;2024-03-25T05:17:30;4.20;99.90
27759;DHT22;15148;48.972;12.794;2024-03-25T05:22:31;4.20;99.90
27759;DHT22;15148;48.972;12.794;2024-03-25T05:27:32;4.20;99.90
27759;DHT22;15148;48.972;12.794;2024-03-25T05:32:33;4.20;99.90
27759;DHT22;15148;48.972;12.794;2024-03-25T05:37:34;4.20;99.90
27759;DHT22;15148;48.972;12.794;2024-03-25T05:42:37;4.20;99.90
27759;DHT22;15148;48.972;12.794;2024-03-25T05:47:38;4.30;99.90
27759;DHT22;15148;48.972;12.794;2024-03-25T05:52:39;4.30;99.90
27759;DHT22;15148;48.972;12.794;2024-03-25T05:57:40;4.30;99.90
27759;DHT22;15148;48.972;12.794;2024-03-25T06:02:41;4.40;99.90
27759;DHT22;15148;48.972;12.794;2024-03-25T06:07:42;4.40;99.90
27759;DHT22;15148;48.972;12.794;2024-03-25T06:12:42;4.50;99.90
27759;DHT22;15148;48.972;12.794;2024-03-25T06:17:43;4.50;99.90
27759;DHT22;15148;48.972;12.794;2024-03-25T06:22:45;4.50;99.90
27759;DHT22;15148;48.972;12.794;2024-03-25T06:27:45;4.50;99.90
27759;DHT22;15148;48.972;12.794;2024-03-25T06:32:48;4.50;99.90
27759;DHT22;15148;48.972;12.794;2024-03-25T06:38:07;4.50;99.90
27759;DHT22;15148;48.972;12.794;2024-03-25T06:43:08;4.50;99.90
27759;DHT22;15148;48.972;12.794;2024-03-25T06:48:09;4.60;99.90
27759;DHT22;15148;48.972;12.794;2024-03-25T06:53:10;4.70;99.90
27759;DHT22;15148;48.972;12.794;2024-03-25T06:58:11;4.80;99.90
27759;DHT22;15148;48.972;12.794;2024-03-25T07:03:12;4.80;99.90
27759;DHT22;15148;48.972;12.794;2024-03-25T07:08:13;4.90;99.90
27759;DHT22;15148;48.972;12.794;2024-03-25T07:13:15;5.00;99.90
27759;DHT22;15148;48.972;12.794;2024-03-25T07:18:16;5.20;99.90
27759;DHT22;15148;48.972;12.794;2024-03-25T07:23:17;5.20;99.90
27759;DHT22;15148;48.972;12.794;2024-03-25T07:28:18;5.30;99.90
27759;DHT22;15148;48.972;12.794;2024-03-25T07:33:20;5.40;99.90
27759;DHT22;15148;48.972;12.794;2024-03-25T07:38:20;5.60;99.90
27759;DHT22;15148;48.972;12.794;2024-03-25T07:43:21;5.70;99.90
27759;DHT22;15148;48.972;12.794;2024-03-25T07:48:22;6.00;99.90
27759;DHT22;15148;48.972;12.794;2024-03-25T07:53:23;5.90;99.90
27759;DHT22;15148;48.972;12.794;2024-03-25T07:58:24;6.00;99.90
27759;DHT22;15148;48.972;12.794;2024-03-25T08:03:26;5.90;99.90
27759;DHT22;15148;48.972;12.794;2024-03-25T08:08:27;6.50;99.90
27759;DHT22;15148;48.972;12.794;2024-03-25T08:13:28;6.80;99.90
27759;DHT22;15148;48.972;12.794;2024-03-25T08:18:29;6.80;99.90
27759;DHT22;15148;48.972;12.794;2024-03-25T08:23:30;6.80;99.90
27759;DHT22;15148;48.972;12.794;2024-03-25T08:28:31;6.60;99.90
27759;DHT22;15148;48.972;12.794;2024-03-25T08:33:31;6.40;99.90
27759;DHT22;15148;48.972;12.794;2024-03-25T08:38:32;6.20;99.90
27759;DHT22;15148;48.972;12.794;2024-03-25T08:43:34;6.30;99.90
27759;DHT22;15148;48.972;12.794;2024-03-25T08:48:35;6.20;99.90
27759;DHT22;15148;48.972;12.794;2024-03-25T08:53:36;6.30;99.90
27759;DHT22;15148;48.972;12.794;2024-03-25T08:58:37;6.30;99.90
27759;DHT22;15148;48.972;12.794;2024-03-25T09:03:38;6.30;99.90
27759;DHT22;15148;48.972;12.794;2024-03-25T09:08:39;6.30;99.90
27759;DHT22;15148;48.972;12.794;2024-03-25T09:13:59;6.40;99.90
27759;DHT22;15148;48.972;12.794;2024-03-25T09:19:00;6.50;99.90
27759;DHT22;15148;48.972;12.794;2024-03-25T09:24:00;6.60;99.90
27759;DHT22;15148;48.972;12.794;2024-03-25T09:29:02;6.50;99.90
27759;DHT22;15148;48.972;12.794;2024-03-25T09:34:03;6.40;99.90
27759;DHT22;15148;48.972;12.794;2024-03-25T09:39:04;6.30;99.90
27759;DHT22;15148;48.972;12.794;2024-03-25T09:44:06;6.20;99.90
27759;DHT22;15148;48.972;12.794;2024-03-25T09:49:07;6.20;99.90
27759;DHT22;15148;48.972;12.794;2024-03-25T09:54:08;6.20;99.90
27759;DHT22;15148;48.972;12.794;2024-03-25T09:59:09;6.40;99.90
27759;DHT22;15148;48.972;12.794;2024-03-25T10:04:10;6.40;99.90
27759;DHT22;15148;48.972;12.794;2024-03-25T10:09:11;6.50;99.90
27759;DHT22;15148;48.972;12.794;2024-03-25T10:14:12;6.60;99.90
27759;DHT22;15148;48.972;12.794;2024-03-25T10:19:13;6.70;99.90
27759;DHT22;15148;48.972;12.794;2024-03-25T10:24:16;6.80;99.90
27759;DHT22;15148;48.972;12.794;2024-03-25T10:29:17;6.90;99.90
27759;DHT22;15148;48.972;12.794;2024-03-25T10:34:18;7.00;99.90
27759;DHT22;15148;48.972;12.794;2024-03-25T10:39:20;7.10;99.90
27759;DHT22;15148;48.972;12.794;2024-03-25T10:44:26;6.90;99.90
27759;DHT22;15148;48.972;12.794;2024-03-25T10:49:33;6.90;99.90
27759;DHT22;15148;48.972;12.794;2024-03-25T10:54:35;6.90;99.90
27759;DHT22;15148;48.972;12.794;2024-03-25T10:59:37;6.90;99.90
27759;DHT22;15148;48.972;12.794;2024-03-25T11:04:42;6.90;99.90
27759;DHT22;15148;48.972;12.794;2024-03-25T11:09:44;7.00;99.90
27759;DHT22;15148;48.972;12.794;2024-03-25T11:14:45;7.10;99.90
27759;DHT22;15148;48.972;12.794;2024-03-25T11:20:07;7.10;99.90
27759;DHT22;15148;48.972;12.794;2024-03-25T11:25:12;7.20;99.90
27759;DHT22;15148;48.972;12.794;2024-03-25T11:30:15;7.10;99.90
27759;DHT22;15148;48.972;12.794;2024-03-25T11:35:16;7.20;99.90
27759;DHT22;15148;48.972;12.794;2024-03-25T11:40:18;7.50;99.90
27759;DHT22;15148;48.972;12.794;2024-03-25T11:45:22;8.40;99.90
27759;DHT22;15148;48.972;12.794;2024-03-25T11:50:24;9.10;99.90
27759;DHT22;15148;48.972;12.794;2024-03-25T11:55:26;9.10;99.90
27759;DHT22;15148;48.972;12.794;2024-03-25T12:00:27;8.80;99.90
27759;DHT22;15148;48.972;12.794;2024-03-25T12:05:28;8.60;99.90
27759;DHT22;15148;48.972;12.794;2024-03-25T12:10:29;8.60;99.90
27759;DHT22;15148;48.972;12.794;2024-03-25T12:15:48;8.60;99.90
27759;DHT22;15148;48.972;12.794;2024-03-25T12:20:50;8.50;99.90
27759;DHT22;15148;48.972;12.794;2024-03-25T12:25:52;8.80;99.90
27759;DHT22;15148;48.972;12.794;2024-03-25T12:30:54;9.40;99.90
27759;DHT22;15148;48.972;12.794;2024-03-25T12:35:56;9.90;99.90
27759;DHT22;15148;48.972;12.794;2024-03-25T12:41:05;9.90;99.90
27759;DHT22;15148;48.972;12.794;2024-03-25T12:46:06;9.80;99.90
27759;DHT22;15148;48.972;12.794;2024-03-25T12:51:13;10.20;99.90
27759;DHT22;15148;48.972;12.794;2024-03-25T12:56:14;10.40;99.90
27759;DHT22;15148;48.972;12.794;2024-03-25T13:01:15;10.70;99.90
27759;DHT22;15148;48.972;12.794;2024-03-25T13:06:16;10.90;99.90
27759;DHT22;15148;48.972;12.794;2024-03-25T13:11:17;11.20;99.90
27759;DHT22;15148;48.972;12.794;2024-03-25T13:16:18;10.90;99.90
27759;DHT22;15148;48.972;12.794;2024-03-25T13:21:19;11.20;99.90
27759;DHT22;15148;48.972;12.794;2024-03-25T13:26:20;11.40;99.90
27759;DHT22;15148;48.972;12.794;2024-03-25T13:31:21;11.50;99.90
27759;DHT22;15148;48.972;12.794;2024-03-25T13:36:22;11.40;99.90
27759;DHT22;15148;48.972;12.794;2024-03-25T13:41:23;11.10;99.90
27759;DHT22;15148;48.972;12.794;2024-03-25T13:46:24;10.60;99.90
27759;DHT22;15148;48.972;12.794;2024-03-25T13:51:25;10.50;99.90
27759;DHT22;15148;48.972;12.794;2024-03-25T13:56:26;10.50;99.90
27759;DHT22;15148;48.972;12.794;2024-03-25T14:01:27;10.70;99.90
27759;DHT22;15148;48.972;12.794;2024-03-25T14:06:28;10.70;99.90
27759;DHT22;15148;48.972;12.794;2024-03-25T14:11:30;10.40;99.90
27759;DHT22;15148;48.972;12.794;2024-03-25T14:16:30;10.20;99.90
27759;DHT22;15148;48.972;12.794;2024-03-25T14:21:31;10.10;99.90
27759;DHT22;15148;48.972;12.794;2024-03-25T14:26:33;10.30;99.90
27759;DHT22;15148;48.972;12.794;2024-03-25T14:31:34;10.40;99.90
27759;DHT22;15148;48.972;12.794;2024-03-25T14:36:35;10.40;99.90
27759;DHT22;15148;48.972;12.794;2024-03-25T14:41:40;10.30;99.90
27759;DHT22;15148;48.972;12.794;2024-03-25T14:46:41;10.30;99.90
27759;DHT22;15148;48.972;12.794;2024-03-25T14:51:42;10.30;99.90
27759;DHT22;15148;48.972;12.794;2024-03-25T14:56:43;10.30;99.90
27759;DHT22;15148;48.972;12.794;2024-03-25T15:01:44;10.30;99.90
27759;DHT22;15148;48.972;12.794;2024-03-25T15:06:45;10.20;99.90
27759;DHT22;15148;48.972;12.794;2024-03-25T15:11:46;10.00;99.90
27759;DHT22;15148;48.972;12.794;2024-03-25T15:16:47;9.80;99.90
27759;DHT22;15148;48.972;12.794;2024-03-25T15:21:48;9.60;99.90
27759;DHT22;15148;48.972;12.794;2024-03-25T15:26:49;9.40;99.90
27759;DHT22;15148;48.972;12.794;2024-03-25T15:31:50;9.20;99.90
27759;DHT22;15148;48.972;12.794;2024-03-25T15:36:51;9.10;99.90
27759;DHT22;15148;48.972;12.794;2024-03-25T15:41:54;9.10;99.90
27759;DHT22;15148;48.972;12.794;2024-03-25T15:46:55;9.00;99.90
27759;DHT22;15148;48.972;12.794;2024-03-25T15:51:56;9.00;99.90
27759;DHT22;15148;48.972;12.794;2024-03-25T15:56:57;9.00;99.90
27759;DHT22;15148;48.972;12.794;2024-03-25T16:01:58;8.80;99.90
27759;DHT22;15148;48.972;12.794;2024-03-25T16:06:59;8.70;99.90
27759;DHT22;15148;48.972;12.794;2024-03-25T16:12:00;8.70;99.90
27759;DHT22;15148;48.972;12.794;2024-03-25T16:17:01;8.50;99.90
27759;DHT22;15148;48.972;12.794;2024-03-25T16:22:02;8.40;99.90
27759;DHT22;15148;48.972;12.794;2024-03-25T16:27:03;8.30;99.90
27759;DHT22;15148;48.972;12.794;2024-03-25T16:32:04;8.10;99.90
27759;DHT22;15148;48.972;12.794;2024-03-25T16:37:05;7.90;99.90
27759;DHT22;15148;48.972;12.794;2024-03-25T16:42:06;7.60;99.90
27759;DHT22;15148;48.972;12.794;2024-03-25T16:47:07;7.40;99.90
27759;DHT22;15148;48.972;12.794;2024-03-25T16:52:09;7.20;99.90
27759;DHT22;15148;48.972;12.794;2024-03-25T16:57:10;7.00;99.90
27759;DHT22;15148;48.972;12.794;2024-03-25T17:02:11;6.70;99.90
27759;DHT22;15148;48.972;12.794;2024-03-25T17:07:12;6.60;99.90
27759;DHT22;15148;48.972;12.794;2024-03-25T17:12:13;6.40;99.90
27759;DHT22;15148;48.972;12.794;2024-03-25T17:17:14;6.20;99.90
27759;DHT22;15148;48.972;12.794;2024-03-25T17:22:15;6.00;99.90
27759;DHT22;15148;48.972;12.794;2024-03-25T17:27:17;5.90;99.90
27759;DHT22;15148;48.972;12.794;2024-03-25T17:32:18;5.80;99.90
27759;DHT22;15148;48.972;12.794;2024-03-25T17:37:19;5.60;99.90
27759;DHT22;15148;48.972;12.794;2024-03-25T17:42:20;5.50;99.90
27759;DHT22;15148;48.972;12.794;2024-03-25T17:47:21;5.40;99.90
27759;DHT22;15148;48.972;12.794;2024-03-25T17:52:23;5.30;99.90
27759;DHT22;15148;48.972;12.794;2024-03-25T17:57:24;5.10;99.90
27759;DHT22;15148;48.972;12.794;2024-03-25T18:02:25;4.90;99.90
27759;DHT22;15148;48.972;12.794;2024-03-25T18:07:26;4.80;99.90
27759;DHT22;15148;48.972;12.794;2024-03-25T18:12:28;4.60;99.90
27759;DHT22;15148;48.972;12.794;2024-03-25T18:17:29;4.50;99.90
27759;DHT22;15148;48.972;12.794;2024-03-25T18:22:30;4.40;99.90
27759;DHT22;15148;48.972;12.794;2024-03-25T18:27:31;4.40;99.90
27759;DHT22;15148;48.972;12.794;2024-03-25T18:32:32;4.30;99.90
27759;DHT22;15148;48.972;12.794;2024-03-25T18:37:33;4.30;99.90
27759;DHT22;15148;48.972;12.794;2024-03-25T18:42:34;4.30;99.90
27759;DHT22;15148;48.972;12.794;2024-03-25T18:47:38;4.20;99.90
27759;DHT22;15148;48.972;12.794;2024-03-25T18:52:39;4.00;99.90
27759;DHT22;15148;48.972;12.794;2024-03-25T18:57:40;3.90;99.90
27759;DHT22;15148;48.972;12.794;2024-03-25T19:02:41;3.80;99.90
27759;DHT22;15148;48.972;12.794;2024-03-25T19:07:42;3.70;99.90
27759;DHT22;15148;48.972;12.794;2024-03-25T19:12:44;3.80;99.90
27759;DHT22;15148;48.972;12.794;2024-03-25T19:17:45;3.80;99.90
27759;DHT22;15148;48.972;12.794;2024-03-25T19:22:46;3.70;99.90
27759;DHT22;15148;48.972;12.794;2024-03-25T19:27:49;3.60;99.90
27759;DHT22;15148;48.972;12.794;2024-03-25T19:32:50;3.50;99.90
27759;DHT22;15148;48.972;12.794;2024-03-25T19:37:51;3.40;99.90
27759;DHT22;15148;48.972;12.794;2024-03-25T19:42:52;3.20;99.90
27759;DHT22;15148;48.972;12.794;2024-03-25T19:47:53;3.10;99.90
27759;DHT22;15148;48.972;12.794;2024-03-25T19:52:54;3.20;99.90
27759;DHT22;15148;48.972;12.794;2024-03-25T19:57:54;3.20;99.90
27759;DHT22;15148;48.972;12.794;2024-03-25T20:02:55;3.10;99.90
27759;DHT22;15148;48.972;12.794;2024-03-25T20:07:56;3.20;99.90
27759;DHT22;15148;48.972;12.794;2024-03-25T20:12:59;3.20;99.90
27759;DHT22;15148;48.972;12.794;2024-03-25T20:17:59;3.10;99.90
27759;DHT22;15148;48.972;12.794;2024-03-25T20:23:00;3.10;99.90
27759;DHT22;15148;48.972;12.794;2024-03-25T20:28:04;3.00;99.90
27759;DHT22;15148;48.972;12.794;2024-03-25T20:33:05;2.90;99.90
27759;DHT22;15148;48.972;12.794;2024-03-25T20:38:10;2.90;99.90
27759;DHT22;15148;48.972;12.794;2024-03-25T20:43:11;2.80;99.90
27759;DHT22;15148;48.972;12.794;2024-03-25T20:48:13;2.80;99.90
27759;DHT22;15148;48.972;12.794;2024-03-25T20:53:15;2.80;99.90
27759;DHT22;15148;48.972;12.794;2024-03-25T20:58:16;2.70;99.90
27759;DHT22;15148;48.972;12.794;2024-03-25T21:03:17;2.70;99.90
27759;DHT22;15148;48.972;12.794;2024-03-25T21:08:18;2.70;99.90
27759;DHT22;15148;48.972;12.794;2024-03-25T21:13:19;2.60;99.90
27759;DHT22;15148;48.972;12.794;2024-03-25T21:18:20;2.60;99.90
27759;DHT22;15148;48.972;12.794;2024-03-25T21:23:21;2.50;99.90
27759;DHT22;15148;48.972;12.794;2024-03-25T21:28:22;2.50;99.90
27759;DHT22;15148;48.972;12.794;2024-03-25T21:33:23;2.50;99.90
27759;DHT22;15148;48.972;12.794;2024-03-25T21:38:25;2.40;99.90
27759;DHT22;15148;48.972;12.794;2024-03-25T21:43:26;2.30;99.90
27759;DHT22;15148;48.972;12.794;2024-03-25T21:48:27;2.20;99.90
27759;DHT22;15148;48.972;12.794;2024-03-25T21:53:28;2.20;99.90
27759;DHT22;15148;48.972;12.794;2024-03-25T21:58:29;2.30;99.90
27759;DHT22;15148;48.972;12.794;2024-03-25T22:03:30;2.20;99.90
27759;DHT22;15148;48.972;12.794;2024-03-25T22:08:31;2.20;99.90
27759;DHT22;15148;48.972;12.794;2024-03-25T22:13:32;2.10;99.90
27759;DHT22;15148;48.972;12.794;2024-03-25T22:18:33;2.20;99.90
27759;DHT22;15148;48.972;12.794;2024-03-25T22:23:34;2.10;99.90
27759;DHT22;15148;48.972;12.794;2024-03-25T22:28:35;2.10;99.90
27759;DHT22;15148;48.972;12.794;2024-03-25T22:33:36;2.00;99.90
27759;DHT22;15148;48.972;12.794;2024-03-25T22:38:37;2.00;99.90
27759;DHT22;15148;48.972;12.794;2024-03-25T22:43:38;2.00;99.90
27759;DHT22;15148;48.972;12.794;2024-03-25T22:48:39;1.90;99.90
27759;DHT22;15148;48.972;12.794;2024-03-25T22:53:40;2.00;99.90
27759;DHT22;15148;48.972;12.794;2024-03-25T22:58:42;2.00;99.90
27759;DHT22;15148;48.972;12.794;2024-03-25T23:03:43;2.00;99.90
27759;DHT22;15148;48.972;12.794;2024-03-25T23:08:44;2.00;99.90
27759;DHT22;15148;48.972;12.794;2024-03-25T23:13:45;2.00;99.90
27759;DHT22;15148;48.972;12.794;2024-03-25T23:18:46;1.90;99.90
27759;DHT22;15148;48.972;12.794;2024-03-25T23:23:47;1.80;99.90
27759;DHT22;15148;48.972;12.794;2024-03-25T23:28:48;1.90;99.90
27759;DHT22;15148;48.972;12.794;2024-03-25T23:33:49;1.80;99.90
27759;DHT22;15148;48.972;12.794;2024-03-25T23:38:50;1.80;99.90
27759;DHT22;15148;48.972;12.794;2024-03-25T23:43:51;1.80;99.90
27759;DHT22;15148;48.972;12.794;2024-03-25T23:48:52;1.80;99.90
27759;DHT22;15148;48.972;12.794;2024-03-25T23:53:53;1.70;99.90
27759;DHT22;15148;48.972;12.794;2024-03-25T23:58:54;1.70;99.90
